Time;durP1;ratioP1;P1;durP2;ratioP2;P2;SDS_P1;SDS_P2;PMS_P1;PMS_P2;Temp;Humidity;BMP_temperature;BMP_pressure;BME280_temperature;BME280_humidity;BME280_pressure;Samples;Min_cycle;Max_cycle;Signal;HPM_P1;HPM_P2
2023/06/19 00:02:16;;;;;;;;;4.00;2.00;;;;;;;;5077568;28;45488;-85
2023/06/19 00:04:41;;;;;;;;;2.50;1.75;;;;;;;;5077597;27;45396;-87
2023/06/19 00:07:06;;;;;;;;;2.00;2.00;;;;;;;;5077143;28;45361;-86
2023/06/19 00:09:32;;;;;;;;;2.00;1.00;;;;;;;;5077340;27;45305;-87
2023/06/19 00:11:59;;;;;;;;;3.50;3.50;;;;;;;;5076447;27;45336;-86
2023/06/19 00:14:24;;;;;;;;;2.00;2.00;;;;;;;;5077210;28;46461;-86
2023/06/19 00:16:50;;;;;;;;;5.00;2.00;;;;;;;;5077519;27;45265;-86
2023/06/19 00:19:17;;;;;;;;;2.00;2.00;;;;;;;;5077466;27;45221;-86
2023/06/19 00:21:42;;;;;;;;;4.25;2.00;;;;;;;;5077053;28;45305;-87
2023/06/19 00:24:11;;;;;;;;;2.25;2.25;;;;;;;;5077210;28;46369;-87
2023/06/19 00:26:36;;;;;;;;;2.00;2.00;;;;;;;;5077186;27;45859;-86
2023/06/19 00:29:01;;;;;;;;;6.00;2.00;;;;;;;;5077258;27;45268;-87
2023/06/19 00:31:27;;;;;;;;;3.00;1.00;;;;;;;;5077306;27;45439;-86
2023/06/19 00:33:52;;;;;;;;;3.75;2.25;;;;;;;;5076563;27;47427;-87
2023/06/19 00:36:20;;;;;;;;;2.00;2.00;;;;;;;;5058918;28;45471;-87
2023/06/19 00:38:45;;;;;;;;;3.25;3.00;;;;;;;;5077149;27;45395;-86
2023/06/19 00:41:10;;;;;;;;;3.00;2.75;;;;;;;;5077212;27;45433;-87
2023/06/19 00:43:36;;;;;;;;;4.00;2.67;;;;;;;;5058837;28;47350;-87
2023/06/19 00:46:01;;;;;;;;;3.33;3.00;;;;;;;;5077216;28;45563;-86
2023/06/19 00:48:30;;;;;;;;;4.75;3.00;;;;;;;;5076475;28;45379;-86
2023/06/19 00:50:58;;;;;;;;;5.50;3.50;;;;;;;;5076924;28;45757;-86
2023/06/19 00:53:24;;;;;;;;;1.50;1.50;;;;;;;;5058607;28;46394;-86
2023/06/19 00:55:54;;;;;;;;;3.00;2.00;;;;;;;;5076823;27;45349;-86
2023/06/19 00:58:20;;;;;;;;;7.00;3.25;;;;;;;;5076938;27;45367;-85
2023/06/19 01:00:45;;;;;;;;;3.00;3.00;;;;;;;;5076867;27;45283;-86
2023/06/19 01:03:10;;;;;;;;;2.00;2.00;;;;;;;;5058044;28;46810;-85
2023/06/19 01:05:38;;;;;;;;;3.67;2.00;;;;;;;;5076833;28;45420;-88
2023/06/19 01:08:33;;;;;;;;;3.25;3.00;;;;;;;;5076729;27;45342;-86
2023/06/19 01:11:00;;;;;;;;;5.75;3.50;;;;;;;;5062992;27;45544;-86
2023/06/19 01:13:34;;;;;;;;;4.00;4.00;;;;;;;;5076271;27;45585;-86
2023/06/19 01:16:01;;;;;;;;;3.50;2.00;;;;;;;;5076473;27;45740;-86
2023/06/19 01:18:27;;;;;;;;;6.25;4.00;;;;;;;;5076245;28;45483;-86
2023/06/19 01:20:52;;;;;;;;;3.75;2.00;;;;;;;;5076479;28;45431;-86
2023/06/19 01:23:18;;;;;;;;;5.00;2.00;;;;;;;;5076033;27;45459;-86
2023/06/19 01:25:43;;;;;;;;;2.00;2.00;;;;;;;;5076293;27;45339;-87
2023/06/19 01:28:11;;;;;;;;;3.67;3.00;;;;;;;;5076334;28;45459;-86
2023/06/19 01:30:37;;;;;;;;;4.00;3.00;;;;;;;;5076285;28;45424;-86
2023/06/19 01:33:16;;;;;;;;;4.25;4.00;;;;;;;;5075740;27;45430;-87
2023/06/19 01:35:42;;;;;;;;;7.25;3.00;;;;;;;;5076224;28;45397;-87
2023/06/19 01:38:07;;;;;;;;;5.50;2.00;;;;;;;;5058070;28;45277;-85
2023/06/19 01:40:33;;;;;;;;;9.50;4.00;;;;;;;;5076094;27;45360;-87
2023/06/19 01:43:00;;;;;;;;;6.00;3.00;;;;;;;;5076074;27;46247;-87
2023/06/19 01:45:27;;;;;;;;;5.00;3.00;;;;;;;;5075969;27;45908;-87
2023/06/19 01:47:52;;;;;;;;;5.00;2.00;;;;;;;;5075583;27;45312;-87
2023/06/19 01:50:18;;;;;;;;;4.25;3.00;;;;;;;;5076016;27;45451;-86
2023/06/19 01:52:44;;;;;;;;;4.00;2.00;;;;;;;;5075876;28;45936;-86
2023/06/19 01:55:10;;;;;;;;;3.25;2.50;;;;;;;;5075853;28;45286;-88
2023/06/19 01:57:36;;;;;;;;;3.25;2.75;;;;;;;;5076092;28;45282;-86
2023/06/19 02:00:01;;;;;;;;;3.25;3.00;;;;;;;;5075984;27;45343;-85
2023/06/19 02:02:26;;;;;;;;;5.00;3.00;;;;;;;;5075522;28;46666;-86
2023/06/19 02:04:52;;;;;;;;;4.33;4.00;;;;;;;;5075848;28;45436;-85
2023/06/19 02:07:17;;;;;;;;;5.00;4.67;;;;;;;;5075907;28;45384;-84
2023/06/19 02:09:42;;;;;;;;;7.00;3.00;;;;;;;;5075721;27;45506;-85
2023/06/19 02:12:08;;;;;;;;;8.00;4.50;;;;;;;;5075410;27;45459;-84
2023/06/19 02:14:33;;;;;;;;;7.75;4.75;;;;;;;;5075467;27;45333;-85
2023/06/19 02:16:58;;;;;;;;;3.00;3.00;;;;;;;;5075550;28;45349;-84
2023/06/19 02:19:23;;;;;;;;;5.00;4.67;;;;;;;;5075776;27;45345;-85
2023/06/19 02:21:48;;;;;;;;;4.67;3.33;;;;;;;;5057352;28;47927;-85
2023/06/19 02:24:14;;;;;;;;;6.33;3.00;;;;;;;;5075534;27;45344;-84
2023/06/19 02:26:39;;;;;;;;;6.00;4.00;;;;;;;;5075690;27;45359;-85
2023/06/19 02:29:04;;;;;;;;;4.33;3.33;;;;;;;;5075680;27;45800;-85
2023/06/19 02:31:29;;;;;;;;;5.50;4.00;;;;;;;;5074943;28;46431;-85
2023/06/19 02:33:55;;;;;;;;;5.33;4.00;;;;;;;;5076512;27;45371;-84
2023/06/19 02:36:20;;;;;;;;;6.00;4.33;;;;;;;;5079129;27;45393;-84
2023/06/19 02:38:49;;;;;;;;;6.33;5.00;;;;;;;;5078838;27;45340;-85
2023/06/19 02:41:14;;;;;;;;;5.25;3.00;;;;;;;;5078854;27;46259;-84
2023/06/19 02:43:40;;;;;;;;;6.00;4.00;;;;;;;;5078916;27;45423;-84
2023/06/19 02:46:06;;;;;;;;;6.00;4.00;;;;;;;;5078597;27;45383;-85
2023/06/19 02:48:31;;;;;;;;;6.50;4.00;;;;;;;;5060508;28;45301;-85
2023/06/19 02:50:56;;;;;;;;;4.67;4.67;;;;;;;;5078655;27;46622;-85
2023/06/19 02:53:21;;;;;;;;;6.00;4.67;;;;;;;;5060567;28;45289;-85
2023/06/19 02:55:47;;;;;;;;;4.75;4.50;;;;;;;;5078744;28;45308;-85
2023/06/19 02:58:12;;;;;;;;;3.00;3.00;;;;;;;;5078924;27;45367;-86
2023/06/19 03:00:37;;;;;;;;;4.67;4.67;;;;;;;;5059901;27;48261;-86
2023/06/19 03:03:02;;;;;;;;;5.75;4.50;;;;;;;;5078526;27;45325;-86
2023/06/19 03:05:28;;;;;;;;;6.50;4.00;;;;;;;;5078653;27;45355;-86
2023/06/19 03:07:53;;;;;;;;;5.00;4.00;;;;;;;;5078459;27;45506;-86
2023/06/19 03:10:18;;;;;;;;;8.00;4.00;;;;;;;;5078303;27;46883;-86
2023/06/19 03:12:43;;;;;;;;;7.00;4.00;;;;;;;;5078209;27;45463;-87
2023/06/19 03:15:09;;;;;;;;;4.67;3.33;;;;;;;;5059837;28;45402;-87
2023/06/19 03:17:34;;;;;;;;;3.00;3.00;;;;;;;;5078403;27;45415;-86
2023/06/19 03:19:59;;;;;;;;;8.00;5.00;;;;;;;;5059962;28;48132;-86
2023/06/19 03:22:24;;;;;;;;;4.67;4.67;;;;;;;;5078131;27;45414;-86
2023/06/19 03:24:50;;;;;;;;;5.50;4.00;;;;;;;;5078386;27;45415;-87
2023/06/19 03:27:15;;;;;;;;;4.00;3.33;;;;;;;;5078107;27;45419;-87
2023/06/19 03:29:40;;;;;;;;;6.00;5.00;;;;;;;;5077435;27;47089;-87
2023/06/19 03:32:05;;;;;;;;;4.00;4.00;;;;;;;;5078082;27;45290;-86
2023/06/19 03:34:31;;;;;;;;;4.75;4.00;;;;;;;;5059714;27;45246;-86
2023/06/19 03:36:58;;;;;;;;;7.00;5.00;;;;;;;;5078474;27;45282;-88
2023/06/19 03:39:24;;;;;;;;;7.25;4.00;;;;;;;;5077797;27;46108;-87
2023/06/19 03:41:49;;;;;;;;;4.00;4.00;;;;;;;;5077835;27;45391;-86
2023/06/19 03:44:14;;;;;;;;;7.00;5.00;;;;;;;;5077629;27;45434;-87
2023/06/19 03:46:40;;;;;;;;;8.50;3.50;;;;;;;;5077636;27;45413;-87
2023/06/19 03:49:06;;;;;;;;;5.00;3.67;;;;;;;;5077643;27;45362;-86
2023/06/19 03:51:32;;;;;;;;;6.00;5.00;;;;;;;;5077730;27;45267;-86
2023/06/19 03:53:57;;;;;;;;;5.00;4.00;;;;;;;;5077817;27;45412;-86
2023/06/19 03:56:22;;;;;;;;;6.00;4.00;;;;;;;;5059727;28;45552;-86
2023/06/19 03:58:47;;;;;;;;;7.00;5.00;;;;;;;;5077123;27;46359;-86
2023/06/19 04:01:12;;;;;;;;;8.67;6.00;;;;;;;;5077482;27;45340;-87
2023/06/19 04:03:38;;;;;;;;;10.67;6.00;;;;;;;;5077787;27;45434;-86
2023/06/19 04:06:03;;;;;;;;;7.67;4.00;;;;;;;;5077539;27;45465;-87
2023/06/19 04:08:28;;;;;;;;;11.00;5.00;;;;;;;;5059128;28;48445;-87
2023/06/19 04:10:54;;;;;;;;;9.50;6.00;;;;;;;;5077493;27;45446;-87
2023/06/19 04:13:19;;;;;;;;;7.00;5.00;;;;;;;;5077120;27;45529;-86
2023/06/19 04:15:44;;;;;;;;;6.25;6.00;;;;;;;;5059273;28;45532;-87
2023/06/19 04:18:10;;;;;;;;;4.33;4.33;;;;;;;;5077382;27;46900;-86
2023/06/19 04:20:35;;;;;;;;;9.25;6.25;;;;;;;;5058823;27;45469;-86
2023/06/19 04:23:00;;;;;;;;;5.00;5.00;;;;;;;;5077534;27;45383;-87
2023/06/19 04:25:25;;;;;;;;;7.00;7.00;;;;;;;;5077352;27;45479;-86
2023/06/19 04:27:50;;;;;;;;;5.67;5.33;;;;;;;;5058301;28;47469;-85
2023/06/19 04:30:16;;;;;;;;;7.67;6.00;;;;;;;;5077175;27;45356;-87
2023/06/19 04:32:41;;;;;;;;;8.00;6.00;;;;;;;;5077243;27;45293;-85
2023/06/19 04:35:07;;;;;;;;;8.67;7.67;;;;;;;;5077545;27;45653;-86
2023/06/19 04:37:32;;;;;;;;;6.25;5.25;;;;;;;;5077253;27;45468;-87
2023/06/19 04:39:57;;;;;;;;;10.67;6.33;;;;;;;;5058562;27;45410;-87
2023/06/19 04:42:23;;;;;;;;;6.00;6.00;;;;;;;;5076883;28;45361;-85
2023/06/19 04:44:48;;;;;;;;;13.75;5.25;;;;;;;;5077059;28;45423;-86
2023/06/19 04:47:15;;;;;;;;;6.50;3.00;;;;;;;;5054980;28;48080;-86
2023/06/19 04:49:40;;;;;;;;;6.50;5.50;;;;;;;;5056507;28;45744;-86
2023/06/19 04:52:06;;;;;;;;;6.67;4.67;;;;;;;;5056605;28;45406;-86
2023/06/19 04:54:34;;;;;;;;;4.75;4.50;;;;;;;;5056528;28;45341;-86
2023/06/19 04:57:00;;;;;;;;;8.25;5.50;;;;;;;;5055545;28;46361;-87
2023/06/19 04:59:26;;;;;;;;;2.75;2.00;;;;;;;;5055053;28;45336;-87
2023/06/19 05:01:53;;;;;;;;;7.75;4.75;;;;;;;;5056715;28;45375;-86
2023/06/19 05:04:19;;;;;;;;;7.50;5.50;;;;;;;;5056454;28;45538;-86
2023/06/19 05:06:44;;;;;;;;;4.50;4.00;;;;;;;;5056254;28;46534;-88
2023/06/19 05:09:10;;;;;;;;;8.75;6.75;;;;;;;;5056508;28;45323;-87
2023/06/19 05:11:36;;;;;;;;;8.00;6.00;;;;;;;;5055992;28;45328;-87
2023/06/19 05:14:01;;;;;;;;;8.67;5.67;;;;;;;;5056113;28;45425;-86
2023/06/19 05:16:26;;;;;;;;;9.33;4.00;;;;;;;;5056053;28;45354;-86
2023/06/19 05:18:51;;;;;;;;;7.00;6.00;;;;;;;;5056045;28;45743;-86
2023/06/19 05:21:17;;;;;;;;;5.00;5.00;;;;;;;;5056463;28;45394;-87
2023/06/19 05:23:47;;;;;;;;;5.75;5.00;;;;;;;;5056312;28;45337;-88
2023/06/19 05:26:13;;;;;;;;;8.00;7.00;;;;;;;;5055837;28;47452;-88
2023/06/19 05:28:39;;;;;;;;;6.75;4.50;;;;;;;;5055928;28;45859;-86
2023/06/19 05:31:04;;;;;;;;;5.50;5.00;;;;;;;;5054950;28;45485;-87
2023/06/19 05:33:29;;;;;;;;;7.50;5.00;;;;;;;;5056120;28;45535;-87
2023/06/19 05:35:55;;;;;;;;;6.00;6.00;;;;;;;;5055752;28;45642;-86
2023/06/19 05:38:21;;;;;;;;;5.00;5.00;;;;;;;;5055863;28;45445;-87
2023/06/19 05:40:46;;;;;;;;;6.50;5.50;;;;;;;;5055843;28;45346;-88
2023/06/19 05:43:11;;;;;;;;;9.00;7.25;;;;;;;;5055946;28;45368;-88
2023/06/19 05:45:37;;;;;;;;;7.75;6.00;;;;;;;;5054484;28;48473;-88
2023/06/19 05:48:02;;;;;;;;;5.00;3.25;;;;;;;;5069485;27;45460;-87
2023/06/19 05:50:28;;;;;;;;;8.75;8.00;;;;;;;;5076279;27;45397;-89
2023/06/19 05:52:53;;;;;;;;;11.67;6.67;;;;;;;;5075947;28;45270;-87
2023/06/19 05:55:18;;;;;;;;;9.50;7.25;;;;;;;;5058009;28;47009;-88
2023/06/19 05:57:44;;;;;;;;;10.50;7.50;;;;;;;;5075964;27;45363;-87
2023/06/19 06:00:14;;;;;;;;;9.33;6.00;;;;;;;;5076151;28;45339;-87
2023/06/19 06:02:39;;;;;;;;;9.75;6.00;;;;;;;;5075666;27;45405;-86
2023/06/19 06:05:05;;;;;;;;;8.25;5.00;;;;;;;;5075951;27;45580;-87
2023/06/19 06:07:30;;;;;;;;;5.75;3.50;;;;;;;;5075656;28;45234;-87
2023/06/19 06:09:55;;;;;;;;;9.00;8.75;;;;;;;;5078502;27;45329;-88
2023/06/19 06:12:21;;;;;;;;;9.00;6.00;;;;;;;;5081975;27;45511;-87
2023/06/19 06:14:46;;;;;;;;;8.50;5.75;;;;;;;;5079655;22;46328;-87
2023/06/19 06:17:11;;;;;;;;;8.67;5.00;;;;;;;;5058783;28;45190;-88
2023/06/19 06:19:37;;;;;;;;;10.00;8.33;;;;;;;;5059738;28;45440;-86
2023/06/19 06:22:02;;;;;;;;;3.75;3.75;;;;;;;;5058574;28;45447;-87
2023/06/19 06:24:27;;;;;;;;;6.25;5.25;;;;;;;;5058863;28;46071;-85
2023/06/19 06:26:52;;;;;;;;;8.33;5.00;;;;;;;;5059251;28;45329;-87
2023/06/19 06:29:18;;;;;;;;;7.00;4.00;;;;;;;;5058782;28;45241;-84
2023/06/19 06:31:45;;;;;;;;;7.75;6.00;;;;;;;;5058714;28;45293;-87
2023/06/19 06:37:05;;;;;;;;;8.50;6.25;;;;;;;;5047074;28;46463;-88
2023/06/19 06:39:30;;;;;;;;;9.50;6.50;;;;;;;;5042922;28;45403;-88
2023/06/19 06:41:58;;;;;;;;;9.50;6.00;;;;;;;;5042269;28;45435;-87
2023/06/19 06:44:23;;;;;;;;;6.00;5.00;;;;;;;;5058269;27;45786;-87
2023/06/19 06:46:51;;;;;;;;;8.25;6.00;;;;;;;;5058004;28;45379;-86
2023/06/19 06:49:20;;;;;;;;;6.75;6.75;;;;;;;;5058218;28;45339;-88
2023/06/19 06:51:47;;;;;;;;;10.75;6.50;;;;;;;;5058694;28;45769;-88
2023/06/19 06:54:13;;;;;;;;;6.25;6.25;;;;;;;;5058431;28;45597;-89
2023/06/19 06:56:38;;;;;;;;;6.50;4.75;;;;;;;;5058469;28;45391;-89
2023/06/19 06:59:03;;;;;;;;;9.50;5.75;;;;;;;;5053567;28;45446;-90
2023/06/19 07:01:29;;;;;;;;;12.00;6.25;;;;;;;;5048479;28;45384;-90
2023/06/19 07:03:54;;;;;;;;;8.00;6.00;;;;;;;;5038272;28;46333;-89
2023/06/19 07:06:19;;;;;;;;;7.67;6.67;;;;;;;;5043025;28;45515;-87
2023/06/19 07:08:47;;;;;;;;;9.00;6.00;;;;;;;;5058090;28;45410;-87
2023/06/19 07:11:12;;;;;;;;;8.75;5.00;;;;;;;;5040955;28;45495;-90
2023/06/19 07:13:41;;;;;;;;;9.00;6.00;;;;;;;;5046047;28;47648;-91
2023/06/19 07:16:06;;;;;;;;;4.00;4.00;;;;;;;;5057501;28;45713;-90
2023/06/19 07:18:33;;;;;;;;;7.00;5.00;;;;;;;;5058531;28;45410;-91
2023/06/19 07:20:58;;;;;;;;;4.00;3.25;;;;;;;;5057865;27;45384;-90
2023/06/19 07:23:24;;;;;;;;;8.67;5.67;;;;;;;;5058473;28;46395;-90
2023/06/19 07:25:49;;;;;;;;;7.00;6.25;;;;;;;;5057918;28;45422;-89
2023/06/19 07:28:14;;;;;;;;;6.67;5.33;;;;;;;;5058255;28;45431;-90
2023/06/19 07:30:40;;;;;;;;;9.25;6.25;;;;;;;;5058591;28;45439;-90
2023/06/19 07:33:05;;;;;;;;;9.00;7.00;;;;;;;;5058034;28;46442;-90
2023/06/19 07:35:30;;;;;;;;;4.67;4.33;;;;;;;;5056457;28;45306;-89
2023/06/19 07:37:55;;;;;;;;;8.67;5.33;;;;;;;;5058033;28;45538;-89
2023/06/19 07:40:21;;;;;;;;;12.00;5.00;;;;;;;;5056831;28;45539;-89
2023/06/19 07:42:46;;;;;;;;;9.75;6.25;;;;;;;;5057695;28;45361;-90
2023/06/19 07:45:11;;;;;;;;;10.00;5.33;;;;;;;;5058013;28;45333;-89
2023/06/19 07:47:37;;;;;;;;;5.50;5.50;;;;;;;;5057747;28;45238;-89
2023/06/19 07:50:02;;;;;;;;;6.33;4.33;;;;;;;;5056235;28;45536;-89
2023/06/19 07:52:27;;;;;;;;;8.00;6.00;;;;;;;;5057399;28;45983;-89
2023/06/19 07:54:54;;;;;;;;;7.25;5.25;;;;;;;;5057698;28;45271;-88
2023/06/19 07:57:19;;;;;;;;;7.50;4.75;;;;;;;;5048313;27;45510;-88
2023/06/19 07:59:45;;;;;;;;;10.50;8.00;;;;;;;;5053403;28;45487;-88
2023/06/19 08:02:10;;;;;;;;;6.75;5.50;;;;;;;;5056780;28;45419;-88
2023/06/19 08:04:35;;;;;;;;;7.25;6.00;;;;;;;;5056469;28;45454;-88
2023/06/19 08:07:01;;;;;;;;;11.33;8.00;;;;;;;;5053533;28;45491;-87
2023/06/19 08:09:26;;;;;;;;;8.33;6.33;;;;;;;;5040552;28;45567;-87
2023/06/19 08:11:51;;;;;;;;;7.67;6.67;;;;;;;;5055019;28;47212;-85
2023/06/19 08:14:16;;;;;;;;;6.00;5.33;;;;;;;;5056439;28;45479;-85
2023/06/19 08:16:41;;;;;;;;;7.67;7.33;;;;;;;;5057185;28;45861;-87
2023/06/19 08:19:07;;;;;;;;;12.33;7.00;;;;;;;;5055175;28;45571;-87
2023/06/19 08:21:32;;;;;;;;;5.67;5.00;;;;;;;;5056116;28;46326;-87
2023/06/19 08:23:58;;;;;;;;;9.67;7.00;;;;;;;;5056630;28;45473;-87
2023/06/19 08:26:23;;;;;;;;;9.00;7.00;;;;;;;;5056727;28;45403;-87
2023/06/19 08:28:49;;;;;;;;;10.25;8.00;;;;;;;;5056264;28;45578;-87
2023/06/19 08:31:14;;;;;;;;;11.00;7.25;;;;;;;;5059082;28;46410;-88
2023/06/19 08:33:39;;;;;;;;;9.75;6.25;;;;;;;;5044252;28;45460;-88
2023/06/19 08:36:04;;;;;;;;;8.00;7.67;;;;;;;;5050528;28;45430;-88
2023/06/19 08:38:30;;;;;;;;;7.00;7.00;;;;;;;;5056460;28;45362;-88
2023/06/19 08:40:55;;;;;;;;;6.33;5.67;;;;;;;;5054870;28;47008;-88
2023/06/19 08:43:20;;;;;;;;;10.00;7.00;;;;;;;;5055705;28;45402;-88
2023/06/19 08:46:01;;;;;;;;;5.25;3.50;;;;;;;;5056517;28;45323;-88
2023/06/19 08:48:27;;;;;;;;;4.50;4.25;;;;;;;;5055938;28;45699;-88
2023/06/19 08:50:52;;;;;;;;;6.00;3.75;;;;;;;;5056103;28;45340;-88
2023/06/19 08:53:17;;;;;;;;;6.00;5.00;;;;;;;;5056030;28;45383;-88
2023/06/19 08:55:43;;;;;;;;;10.00;7.00;;;;;;;;5056280;28;45633;-87
2023/06/19 08:58:10;;;;;;;;;5.67;5.00;;;;;;;;5056052;28;45417;-88
2023/06/19 09:00:35;;;;;;;;;4.75;3.50;;;;;;;;5059893;27;45612;-88
2023/06/19 09:03:01;;;;;;;;;5.25;5.25;;;;;;;;5056032;28;45481;-89
2023/06/19 09:05:27;;;;;;;;;6.25;4.75;;;;;;;;5054837;28;45363;-88
2023/06/19 09:07:56;;;;;;;;;4.00;4.00;;;;;;;;5054448;28;45379;-89
2023/06/19 09:10:23;;;;;;;;;7.75;4.75;;;;;;;;5054801;28;47422;-89
2023/06/19 09:12:58;;;;;;;;;3.00;2.75;;;;;;;;5055713;28;45501;-89
2023/06/19 09:15:26;;;;;;;;;2.00;2.00;;;;;;;;5054621;28;45757;-89
2023/06/19 09:18:01;;;;;;;;;7.75;2.75;;;;;;;;5055524;28;45391;-89
2023/06/19 09:20:27;;;;;;;;;2.00;2.00;;;;;;;;5055780;28;47478;-88
2023/06/19 09:22:54;;;;;;;;;3.00;2.00;;;;;;;;5055785;28;45779;-89
2023/06/19 09:25:20;;;;;;;;;4.50;3.00;;;;;;;;5056107;28;45241;-89
2023/06/19 09:27:45;;;;;;;;;2.00;0.75;;;;;;;;5055733;28;45535;-87
2023/06/19 09:30:15;;;;;;;;;2.00;2.00;;;;;;;;5055669;27;45554;-89
2023/06/19 09:32:40;;;;;;;;;4.00;2.00;;;;;;;;5054476;28;45470;-89
2023/06/19 09:35:05;;;;;;;;;5.00;3.00;;;;;;;;5044681;28;45408;-90
2023/06/19 09:37:30;;;;;;;;;4.00;2.50;;;;;;;;5055424;28;45573;-89
2023/06/19 09:39:57;;;;;;;;;3.00;2.75;;;;;;;;5054232;28;48270;-88
2023/06/19 09:42:26;;;;;;;;;3.25;2.25;;;;;;;;5054077;28;45490;-90
2023/06/19 09:44:55;;;;;;;;;3.50;2.00;;;;;;;;5055913;28;45364;-89
2023/06/19 09:47:23;;;;;;;;;3.00;2.50;;;;;;;;5054215;28;45529;-90
2023/06/19 09:49:50;;;;;;;;;5.25;2.75;;;;;;;;5053935;28;46098;-89
2023/06/19 09:52:15;;;;;;;;;3.00;2.00;;;;;;;;5035573;28;45647;-89
2023/06/19 09:54:41;;;;;;;;;5.00;3.00;;;;;;;;5036448;28;45455;-90
2023/06/19 09:57:07;;;;;;;;;2.25;2.25;;;;;;;;5050692;28;45367;-89
2023/06/19 09:59:33;;;;;;;;;4.00;2.00;;;;;;;;5053518;28;46464;-88
2023/06/19 10:01:58;;;;;;;;;3.75;3.75;;;;;;;;5055598;27;45506;-90
2023/06/19 10:04:24;;;;;;;;;4.00;2.00;;;;;;;;5055870;28;45519;-89
2023/06/19 10:06:49;;;;;;;;;3.67;3.00;;;;;;;;5055053;28;45392;-90
2023/06/19 10:09:18;;;;;;;;;6.25;2.75;;;;;;;;5053934;28;46195;-90
2023/06/19 10:11:48;;;;;;;;;5.00;2.00;;;;;;;;5055760;28;45685;-91
2023/06/19 10:14:13;;;;;;;;;6.75;3.00;;;;;;;;5055560;28;45579;-91
2023/06/19 10:16:40;;;;;;;;;2.00;2.00;;;;;;;;5055688;28;45471;-90
2023/06/19 10:19:11;;;;;;;;;3.75;1.75;;;;;;;;5055408;28;46455;-91
2023/06/19 10:21:50;;;;;;;;;1.25;1.00;;;;;;;;5054812;28;45667;-90
2023/06/19 10:24:18;;;;;;;;;4.25;3.25;;;;;;;;5056045;28;45363;-90
2023/06/19 10:26:43;;;;;;;;;5.00;2.75;;;;;;;;5055671;28;45479;-91
2023/06/19 10:29:15;;;;;;;;;5.00;3.00;;;;;;;;5055009;27;46250;-91
2023/06/19 10:34:48;;;;;;;;;2.00;1.50;;;;;;;;5050556;28;45447;-91
2023/06/19 10:37:14;;;;;;;;;1.50;1.25;;;;;;;;5042512;28;45617;-90
2023/06/19 10:39:39;;;;;;;;;3.00;3.00;;;;;;;;5047193;28;47911;-88
2023/06/19 10:42:08;;;;;;;;;2.00;2.00;;;;;;;;5039579;28;45301;-90
2023/06/19 10:44:33;;;;;;;;;3.00;3.00;;;;;;;;5035869;28;45376;-90
2023/06/19 10:46:58;;;;;;;;;3.00;2.00;;;;;;;;5052450;28;45435;-92
2023/06/19 10:49:24;;;;;;;;;7.25;3.00;;;;;;;;5054500;28;45422;-88
2023/06/19 10:51:49;;;;;;;;;2.00;2.00;;;;;;;;5057148;28;45497;-92
2023/06/19 10:54:15;;;;;;;;;4.00;2.00;;;;;;;;5075635;27;45428;-91
2023/06/19 10:56:40;;;;;;;;;2.50;2.00;;;;;;;;5075928;28;45457;-89
2023/06/19 10:59:08;;;;;;;;;2.75;2.75;;;;;;;;5058235;28;47032;-89
2023/06/19 11:01:34;;;;;;;;;2.00;2.00;;;;;;;;5058237;28;45230;-88
2023/06/19 11:03:59;;;;;;;;;2.25;1.75;;;;;;;;5064748;28;45266;-92
2023/06/19 11:06:41;;;;;;;;;2.67;2.00;;;;;;;;5077779;28;45268;-93
2023/06/19 11:09:08;;;;;;;;;6.00;3.00;;;;;;;;5076769;28;47378;-90
2023/06/19 11:18:36;;;;;;;;;3.25;2.00;;;;;;;;5017016;28;45485;-93
2023/06/19 11:21:29;;;;;;;;;0.75;0.50;;;;;;;;5016829;28;46277;-92
2023/06/19 11:23:57;;;;;;;;;1.75;1.75;;;;;;;;5012947;28;45409;-91
2023/06/19 11:26:24;;;;;;;;;2.00;1.00;;;;;;;;5018347;28;45466;-90
2023/06/19 11:28:49;;;;;;;;;5.50;1.75;;;;;;;;5010623;28;45627;-91
2023/06/19 11:31:15;;;;;;;;;4.33;2.00;;;;;;;;4998984;28;48140;-90
2023/06/19 11:33:40;;;;;;;;;3.75;2.25;;;;;;;;5015279;28;45564;-90
2023/06/19 11:36:06;;;;;;;;;1.00;1.00;;;;;;;;5015648;28;45611;-89
2023/06/19 11:38:34;;;;;;;;;3.00;2.00;;;;;;;;4997805;28;45384;-88
2023/06/19 11:40:59;;;;;;;;;2.00;1.25;;;;;;;;5003301;28;46239;-88
2023/06/19 11:43:25;;;;;;;;;3.67;1.00;;;;;;;;5015225;28;45337;-89
2023/06/19 11:45:52;;;;;;;;;2.50;1.25;;;;;;;;5004048;28;45391;-90
2023/06/19 11:48:26;;;;;;;;;4.00;3.25;;;;;;;;5017931;28;45437;-89
2023/06/19 11:50:52;;;;;;;;;3.25;2.00;;;;;;;;5037175;28;46690;-90
2023/06/19 11:53:18;;;;;;;;;1.00;0.50;;;;;;;;5036787;28;45533;-90
2023/06/19 11:55:43;;;;;;;;;2.00;2.00;;;;;;;;5037333;28;45613;-90
2023/06/19 11:58:09;;;;;;;;;2.50;1.00;;;;;;;;5046329;28;45551;-90
2023/06/19 12:00:35;;;;;;;;;2.75;1.50;;;;;;;;5061071;28;45470;-89
2023/06/19 12:03:01;;;;;;;;;3.75;1.50;;;;;;;;5056888;28;45863;-90
2023/06/19 12:05:26;;;;;;;;;3.75;2.00;;;;;;;;5056099;28;45489;-90
2023/06/19 12:07:51;;;;;;;;;2.33;1.00;;;;;;;;5056084;28;45914;-90
2023/06/19 12:10:16;;;;;;;;;1.00;1.00;;;;;;;;5057337;28;45309;-90
2023/06/19 12:12:42;;;;;;;;;0.67;0.67;;;;;;;;5055397;28;45665;-88
2023/06/19 12:15:07;;;;;;;;;1.00;1.00;;;;;;;;5056734;27;45454;-89
2023/06/19 12:17:32;;;;;;;;;1.50;0.25;;;;;;;;5056673;28;45417;-89
2023/06/19 12:19:58;;;;;;;;;2.25;2.25;;;;;;;;5056653;28;46215;-89
2023/06/19 12:22:23;;;;;;;;;3.50;2.75;;;;;;;;5056993;28;45481;-89
2023/06/19 12:24:48;;;;;;;;;2.00;2.00;;;;;;;;5056889;28;45348;-90
2023/06/19 12:27:13;;;;;;;;;3.00;3.00;;;;;;;;5056529;28;45344;-89
2023/06/19 12:29:39;;;;;;;;;3.67;3.67;;;;;;;;5056587;28;46389;-88
2023/06/19 12:32:04;;;;;;;;;3.00;2.00;;;;;;;;5056118;28;45313;-89
2023/06/19 12:34:29;;;;;;;;;4.25;2.00;;;;;;;;5055391;28;45356;-89
2023/06/19 12:36:56;;;;;;;;;6.50;2.00;;;;;;;;5055241;28;45561;-89
2023/06/19 12:39:22;;;;;;;;;1.25;1.25;;;;;;;;5056043;28;45490;-89
2023/06/19 12:41:47;;;;;;;;;3.00;3.00;;;;;;;;5056391;28;45353;-89
2023/06/19 12:44:12;;;;;;;;;2.75;2.25;;;;;;;;5056385;28;45452;-89
2023/06/19 12:46:38;;;;;;;;;5.00;2.00;;;;;;;;5056096;28;45288;-89
2023/06/19 12:49:03;;;;;;;;;3.75;2.00;;;;;;;;5055991;28;45919;-89
2023/06/19 12:51:28;;;;;;;;;3.00;2.25;;;;;;;;5054479;28;46754;-89
2023/06/19 12:53:53;;;;;;;;;3.00;1.67;;;;;;;;5056130;28;45473;-88
2023/06/19 12:56:19;;;;;;;;;2.67;0.00;;;;;;;;5054933;28;45582;-87
2023/06/19 12:58:44;;;;;;;;;3.00;2.33;;;;;;;;5054823;28;48290;-89
2023/06/19 13:01:09;;;;;;;;;3.33;2.00;;;;;;;;5055516;28;45461;-88
2023/06/19 13:03:34;;;;;;;;;2.33;2.00;;;;;;;;5056209;28;45430;-88
2023/06/19 13:05:59;;;;;;;;;1.75;1.75;;;;;;;;5055815;28;45406;-89
2023/06/19 13:08:25;;;;;;;;;2.33;2.00;;;;;;;;5055930;28;45477;-89
2023/06/19 13:10:50;;;;;;;;;3.00;2.00;;;;;;;;5056110;28;45264;-89
2023/06/19 13:13:15;;;;;;;;;2.00;2.00;;;;;;;;5055846;28;45441;-90
2023/06/19 13:15:41;;;;;;;;;3.25;2.25;;;;;;;;5054787;28;45541;-91
2023/06/19 13:18:06;;;;;;;;;5.00;3.00;;;;;;;;5045048;28;46964;-88
2023/06/19 13:20:31;;;;;;;;;2.00;2.00;;;;;;;;5052260;28;45320;-88
2023/06/19 13:22:57;;;;;;;;;3.25;1.50;;;;;;;;5054130;28;45241;-89
2023/06/19 13:25:22;;;;;;;;;2.50;2.50;;;;;;;;5054340;28;45348;-89
2023/06/19 13:27:47;;;;;;;;;4.00;2.00;;;;;;;;5054587;28;45369;-93
2023/06/19 13:30:12;;;;;;;;;3.00;2.00;;;;;;;;5054941;28;45290;-90
2023/06/19 13:32:38;;;;;;;;;3.25;2.25;;;;;;;;5055759;28;45381;-91
2023/06/19 13:35:04;;;;;;;;;4.00;2.33;;;;;;;;5055662;28;45521;-90
2023/06/19 13:37:30;;;;;;;;;3.50;3.00;;;;;;;;5055424;28;47719;-90
2023/06/19 13:39:55;;;;;;;;;4.00;2.00;;;;;;;;5055579;28;45463;-89
2023/06/19 13:42:21;;;;;;;;;6.50;3.00;;;;;;;;5055178;28;45359;-92
2023/06/19 13:44:46;;;;;;;;;2.75;2.75;;;;;;;;5056748;28;45530;-93
2023/06/19 13:47:11;;;;;;;;;3.33;2.00;;;;;;;;5055171;28;45739;-89
2023/06/19 13:49:36;;;;;;;;;5.33;4.00;;;;;;;;5069411;28;45526;-88
2023/06/19 13:52:02;;;;;;;;;7.75;3.25;;;;;;;;5075713;27;45436;-89
2023/06/19 13:54:27;;;;;;;;;2.00;2.00;;;;;;;;5076057;27;45434;-90
2023/06/19 13:56:52;;;;;;;;;5.25;3.75;;;;;;;;5075208;27;45338;-90
2023/06/19 13:59:18;;;;;;;;;5.50;3.50;;;;;;;;5074285;28;45591;-90
2023/06/19 14:01:46;;;;;;;;;3.75;2.75;;;;;;;;5075976;28;45431;-94
2023/06/19 14:04:17;;;;;;;;;2.50;2.50;;;;;;;;5076463;28;45454;-92
2023/06/19 14:09:53;;;;;;;;;2.75;2.00;;;;;;;;5076334;27;45746;-92
2023/06/19 14:34:37;;;;;;;;;4.75;3.50;;;;;;;;4887104;28;45422;-92
2023/06/19 14:54:33;;;;;;;;;4.25;3.75;;;;;;;;5188615;22;45744;-90
2023/06/19 14:57:18;;;;;;;;;5.00;3.00;;;;;;;;5039951;28;45483;-92
2023/06/19 15:00:32;;;;;;;;;;;;;;;;;;;;;
2023/06/19 15:03:00;;;;;;;;;4.00;4.00;;;;;;;;5033459;28;71280;-92
2023/06/19 15:05:29;;;;;;;;;2.00;2.00;;;;;;;;5057469;28;46551;-91
2023/06/19 15:08:01;;;;;;;;;4.25;3.25;;;;;;;;5058352;28;45408;-91
2023/06/19 15:10:26;;;;;;;;;3.50;3.25;;;;;;;;5045832;28;45571;-90
2023/06/19 15:12:51;;;;;;;;;4.75;3.00;;;;;;;;5038189;28;45546;-90
2023/06/19 15:15:16;;;;;;;;;11.00;5.00;;;;;;;;5038002;28;45513;-91
2023/06/19 15:17:42;;;;;;;;;2.00;2.00;;;;;;;;5020280;28;45315;-90
2023/06/19 15:20:08;;;;;;;;;3.50;3.00;;;;;;;;5020585;28;45420;-90
2023/06/19 15:22:34;;;;;;;;;5.50;4.00;;;;;;;;5038000;28;45306;-91
2023/06/19 15:24:59;;;;;;;;;5.75;4.50;;;;;;;;5019887;28;47238;-90
2023/06/19 15:27:24;;;;;;;;;5.00;4.00;;;;;;;;5037888;28;45329;-90
2023/06/19 15:29:49;;;;;;;;;4.25;4.00;;;;;;;;5038258;28;45289;-91
2023/06/19 15:32:15;;;;;;;;;8.00;5.00;;;;;;;;5020643;28;45295;-90
2023/06/19 15:34:40;;;;;;;;;4.67;3.33;;;;;;;;5037799;28;45694;-90